sensor_id;sensor_type;location;lat;lon;timestamp;P1;durP1;ratioP1;P2;durP2;ratioP2
42682;SDS011;28293;50.930;3.464;2023-08-17T00:01:46;15.77;;;12.07;;
42682;SDS011;28293;50.930;3.464;2023-08-17T00:04:12;14.77;;;12.27;;
42682;SDS011;28293;50.930;3.464;2023-08-17T00:06:38;14.18;;;12.68;;
42682;SDS011;28293;50.930;3.464;2023-08-17T00:09:04;14.30;;;12.80;;
42682;SDS011;28293;50.930;3.464;2023-08-17T00:11:31;16.83;;;13.15;;
42682;SDS011;28293;50.930;3.464;2023-08-17T00:13:57;15.73;;;12.95;;
42682;SDS011;28293;50.930;3.464;2023-08-17T00:16:23;14.32;;;12.88;;
42682;SDS011;28293;50.930;3.464;2023-08-17T00:18:49;15.88;;;13.73;;
42682;SDS011;28293;50.930;3.464;2023-08-17T00:21:14;15.60;;;12.77;;
42682;SDS011;28293;50.930;3.464;2023-08-17T00:23:40;18.10;;;13.85;;
42682;SDS011;28293;50.930;3.464;2023-08-17T00:26:06;16.95;;;13.80;;
42682;SDS011;28293;50.930;3.464;2023-08-17T00:28:33;15.38;;;13.77;;
42682;SDS011;28293;50.930;3.464;2023-08-17T00:30:59;15.85;;;14.18;;
42682;SDS011;28293;50.930;3.464;2023-08-17T00:33:25;16.77;;;14.98;;
42682;SDS011;28293;50.930;3.464;2023-08-17T00:35:50;18.15;;;16.15;;
42682;SDS011;28293;50.930;3.464;2023-08-17T00:38:16;18.23;;;15.80;;
42682;SDS011;28293;50.930;3.464;2023-08-17T00:40:42;16.40;;;14.73;;
42682;SDS011;28293;50.930;3.464;2023-08-17T00:43:08;19.80;;;15.43;;
42682;SDS011;28293;50.930;3.464;2023-08-17T00:45:34;18.45;;;15.60;;
42682;SDS011;28293;50.930;3.464;2023-08-17T00:48:01;18.30;;;16.00;;
42682;SDS011;28293;50.930;3.464;2023-08-17T00:50:27;17.38;;;15.57;;
42682;SDS011;28293;50.930;3.464;2023-08-17T00:52:54;17.90;;;16.05;;
42682;SDS011;28293;50.930;3.464;2023-08-17T00:55:21;17.70;;;15.35;;
42682;SDS011;28293;50.930;3.464;2023-08-17T00:57:47;16.30;;;14.57;;
42682;SDS011;28293;50.930;3.464;2023-08-17T01:00:13;17.40;;;15.70;;
42682;SDS011;28293;50.930;3.464;2023-08-17T01:02:40;16.92;;;15.15;;
42682;SDS011;28293;50.930;3.464;2023-08-17T01:05:06;16.65;;;15.00;;
42682;SDS011;28293;50.930;3.464;2023-08-17T01:07:32;16.77;;;15.02;;
42682;SDS011;28293;50.930;3.464;2023-08-17T01:09:58;17.20;;;15.40;;
42682;SDS011;28293;50.930;3.464;2023-08-17T01:12:30;16.27;;;14.57;;
42682;SDS011;28293;50.930;3.464;2023-08-17T01:15:18;17.35;;;15.60;;
42682;SDS011;28293;50.930;3.464;2023-08-17T01:18:04;15.65;;;14.00;;
42682;SDS011;28293;50.930;3.464;2023-08-17T01:20:41;16.85;;;14.05;;
42682;SDS011;28293;50.930;3.464;2023-08-17T01:23:08;18.70;;;15.27;;
42682;SDS011;28293;50.930;3.464;2023-08-17T01:25:34;16.08;;;14.38;;
42682;SDS011;28293;50.930;3.464;2023-08-17T01:28:02;17.08;;;14.35;;
42682;SDS011;28293;50.930;3.464;2023-08-17T01:30:28;17.40;;;13.85;;
42682;SDS011;28293;50.930;3.464;2023-08-17T01:33:06;16.52;;;14.27;;
42682;SDS011;28293;50.930;3.464;2023-08-17T01:38:29;15.05;;;13.48;;
42682;SDS011;28293;50.930;3.464;2023-08-17T01:40:54;15.95;;;12.93;;
42682;SDS011;28293;50.930;3.464;2023-08-17T01:43:21;18.23;;;14.13;;
42682;SDS011;28293;50.930;3.464;2023-08-17T01:45:47;14.20;;;12.15;;
42682;SDS011;28293;50.930;3.464;2023-08-17T01:48:13;18.52;;;13.90;;
42682;SDS011;28293;50.930;3.464;2023-08-17T01:50:39;16.05;;;12.82;;
42682;SDS011;28293;50.930;3.464;2023-08-17T01:53:04;15.60;;;12.93;;
42682;SDS011;28293;50.930;3.464;2023-08-17T01:55:30;15.40;;;13.77;;
42682;SDS011;28293;50.930;3.464;2023-08-17T01:57:56;15.32;;;12.43;;
42682;SDS011;28293;50.930;3.464;2023-08-17T02:00:21;13.63;;;12.23;;
42682;SDS011;28293;50.930;3.464;2023-08-17T02:02:47;18.63;;;12.70;;
42682;SDS011;28293;50.930;3.464;2023-08-17T02:05:13;16.05;;;12.18;;
42682;SDS011;28293;50.930;3.464;2023-08-17T02:07:39;15.45;;;11.95;;
42682;SDS011;28293;50.930;3.464;2023-08-17T02:10:04;13.38;;;11.98;;
42682;SDS011;28293;50.930;3.464;2023-08-17T02:12:30;14.18;;;11.15;;
42682;SDS011;28293;50.930;3.464;2023-08-17T02:14:56;15.38;;;11.85;;
42682;SDS011;28293;50.930;3.464;2023-08-17T02:17:22;14.68;;;10.98;;
42682;SDS011;28293;50.930;3.464;2023-08-17T02:19:48;13.90;;;11.05;;
42682;SDS011;28293;50.930;3.464;2023-08-17T02:22:14;14.07;;;11.02;;
42682;SDS011;28293;50.930;3.464;2023-08-17T02:24:39;16.00;;;11.55;;
42682;SDS011;28293;50.930;3.464;2023-08-17T02:27:06;14.07;;;11.20;;
42682;SDS011;28293;50.930;3.464;2023-08-17T02:29:32;12.57;;;10.77;;
42682;SDS011;28293;50.930;3.464;2023-08-17T02:31:58;14.75;;;10.10;;
42682;SDS011;28293;50.930;3.464;2023-08-17T02:34:24;13.27;;;10.38;;
42682;SDS011;28293;50.930;3.464;2023-08-17T02:36:50;12.75;;;10.23;;
42682;SDS011;28293;50.930;3.464;2023-08-17T02:39:15;13.38;;;9.43;;
42682;SDS011;28293;50.930;3.464;2023-08-17T02:41:41;13.25;;;9.57;;
42682;SDS011;28293;50.930;3.464;2023-08-17T02:44:07;13.98;;;9.80;;
42682;SDS011;28293;50.930;3.464;2023-08-17T02:46:32;12.57;;;8.73;;
42682;SDS011;28293;50.930;3.464;2023-08-17T02:48:58;16.00;;;9.52;;
42682;SDS011;28293;50.930;3.464;2023-08-17T02:51:24;11.93;;;9.27;;
42682;SDS011;28293;50.930;3.464;2023-08-17T02:53:49;13.68;;;9.27;;
42682;SDS011;28293;50.930;3.464;2023-08-17T02:56:15;11.50;;;9.52;;
42682;SDS011;28293;50.930;3.464;2023-08-17T02:58:41;14.65;;;9.63;;
42682;SDS011;28293;50.930;3.464;2023-08-17T03:01:07;13.35;;;9.43;;
42682;SDS011;28293;50.930;3.464;2023-08-17T03:03:33;14.40;;;9.68;;
42682;SDS011;28293;50.930;3.464;2023-08-17T03:05:59;15.60;;;9.40;;
42682;SDS011;28293;50.930;3.464;2023-08-17T03:08:25;13.02;;;9.48;;
42682;SDS011;28293;50.930;3.464;2023-08-17T03:10:51;13.40;;;9.25;;
42682;SDS011;28293;50.930;3.464;2023-08-17T03:13:16;13.82;;;10.07;;
42682;SDS011;28293;50.930;3.464;2023-08-17T03:15:42;14.50;;;10.07;;
42682;SDS011;28293;50.930;3.464;2023-08-17T03:18:07;15.10;;;10.10;;
42682;SDS011;28293;50.930;3.464;2023-08-17T03:20:33;12.68;;;10.15;;
42682;SDS011;28293;50.930;3.464;2023-08-17T03:22:59;17.52;;;10.93;;
42682;SDS011;28293;50.930;3.464;2023-08-17T03:25:25;11.95;;;9.27;;
42682;SDS011;28293;50.930;3.464;2023-08-17T03:27:50;14.48;;;10.05;;
42682;SDS011;28293;50.930;3.464;2023-08-17T03:30:16;14.63;;;10.57;;
42682;SDS011;28293;50.930;3.464;2023-08-17T03:32:42;13.30;;;9.48;;
42682;SDS011;28293;50.930;3.464;2023-08-17T03:35:07;13.07;;;10.43;;
42682;SDS011;28293;50.930;3.464;2023-08-17T03:37:33;15.75;;;10.85;;
42682;SDS011;28293;50.930;3.464;2023-08-17T03:39:59;14.50;;;10.20;;
42682;SDS011;28293;50.930;3.464;2023-08-17T03:42:25;14.07;;;10.85;;
42682;SDS011;28293;50.930;3.464;2023-08-17T03:44:52;15.30;;;11.05;;
42682;SDS011;28293;50.930;3.464;2023-08-17T03:47:18;15.35;;;10.85;;
42682;SDS011;28293;50.930;3.464;2023-08-17T03:49:43;14.00;;;10.75;;
42682;SDS011;28293;50.930;3.464;2023-08-17T03:52:09;13.88;;;10.48;;
42682;SDS011;28293;50.930;3.464;2023-08-17T03:54:35;15.18;;;10.60;;
42682;SDS011;28293;50.930;3.464;2023-08-17T03:57:01;15.85;;;10.75;;
42682;SDS011;28293;50.930;3.464;2023-08-17T03:59:27;13.23;;;9.95;;
42682;SDS011;28293;50.930;3.464;2023-08-17T04:01:53;14.15;;;10.70;;
42682;SDS011;28293;50.930;3.464;2023-08-17T04:04:18;12.77;;;10.40;;
42682;SDS011;28293;50.930;3.464;2023-08-17T04:06:44;14.23;;;9.98;;
42682;SDS011;28293;50.930;3.464;2023-08-17T04:09:10;14.48;;;10.43;;
42682;SDS011;28293;50.930;3.464;2023-08-17T04:11:36;16.00;;;10.90;;
42682;SDS011;28293;50.930;3.464;2023-08-17T04:14:02;11.77;;;9.95;;
42682;SDS011;28293;50.930;3.464;2023-08-17T04:16:28;13.48;;;10.10;;
42682;SDS011;28293;50.930;3.464;2023-08-17T04:18:54;13.20;;;9.30;;
42682;SDS011;28293;50.930;3.464;2023-08-17T04:21:20;12.02;;;9.80;;
42682;SDS011;28293;50.930;3.464;2023-08-17T04:23:45;13.43;;;9.93;;
42682;SDS011;28293;50.930;3.464;2023-08-17T04:26:11;14.73;;;10.80;;
42682;SDS011;28293;50.930;3.464;2023-08-17T04:28:37;13.25;;;9.05;;
42682;SDS011;28293;50.930;3.464;2023-08-17T04:31:03;11.65;;;9.93;;
42682;SDS011;28293;50.930;3.464;2023-08-17T04:33:29;14.88;;;9.57;;
42682;SDS011;28293;50.930;3.464;2023-08-17T04:35:54;11.90;;;9.82;;
42682;SDS011;28293;50.930;3.464;2023-08-17T04:38:20;14.95;;;10.27;;
42682;SDS011;28293;50.930;3.464;2023-08-17T04:40:46;14.38;;;10.05;;
42682;SDS011;28293;50.930;3.464;2023-08-17T04:43:11;14.38;;;10.25;;
42682;SDS011;28293;50.930;3.464;2023-08-17T04:45:37;12.48;;;10.10;;
42682;SDS011;28293;50.930;3.464;2023-08-17T04:48:03;14.50;;;9.88;;
42682;SDS011;28293;50.930;3.464;2023-08-17T04:50:30;13.05;;;9.80;;
42682;SDS011;28293;50.930;3.464;2023-08-17T04:52:56;16.58;;;11.05;;
42682;SDS011;28293;50.930;3.464;2023-08-17T04:55:22;15.25;;;9.80;;
42682;SDS011;28293;50.930;3.464;2023-08-17T04:57:48;15.48;;;10.35;;
42682;SDS011;28293;50.930;3.464;2023-08-17T05:00:14;14.00;;;10.02;;
42682;SDS011;28293;50.930;3.464;2023-08-17T05:02:40;14.73;;;9.70;;
42682;SDS011;28293;50.930;3.464;2023-08-17T05:05:06;12.25;;;9.63;;
42682;SDS011;28293;50.930;3.464;2023-08-17T05:07:34;14.93;;;10.45;;
42682;SDS011;28293;50.930;3.464;2023-08-17T05:10:00;11.95;;;9.63;;
42682;SDS011;28293;50.930;3.464;2023-08-17T05:12:27;11.82;;;9.73;;
42682;SDS011;28293;50.930;3.464;2023-08-17T05:14:52;16.27;;;9.75;;
42682;SDS011;28293;50.930;3.464;2023-08-17T05:17:18;15.07;;;9.93;;
42682;SDS011;28293;50.930;3.464;2023-08-17T05:19:44;12.18;;;9.00;;
42682;SDS011;28293;50.930;3.464;2023-08-17T05:22:10;16.55;;;9.68;;
42682;SDS011;28293;50.930;3.464;2023-08-17T05:24:36;15.18;;;9.55;;
42682;SDS011;28293;50.930;3.464;2023-08-17T05:27:02;12.75;;;8.88;;
42682;SDS011;28293;50.930;3.464;2023-08-17T05:29:28;11.73;;;8.25;;
42682;SDS011;28293;50.930;3.464;2023-08-17T05:31:54;15.35;;;9.50;;
42682;SDS011;28293;50.930;3.464;2023-08-17T05:34:19;12.00;;;8.80;;
42682;SDS011;28293;50.930;3.464;2023-08-17T05:36:45;11.63;;;8.25;;
42682;SDS011;28293;50.930;3.464;2023-08-17T05:39:11;13.45;;;9.07;;
42682;SDS011;28293;50.930;3.464;2023-08-17T05:41:36;15.73;;;8.93;;
42682;SDS011;28293;50.930;3.464;2023-08-17T05:44:02;13.38;;;8.98;;
42682;SDS011;28293;50.930;3.464;2023-08-17T05:46:28;14.85;;;9.18;;
42682;SDS011;28293;50.930;3.464;2023-08-17T05:48:54;10.90;;;8.18;;
42682;SDS011;28293;50.930;3.464;2023-08-17T05:51:19;12.20;;;8.85;;
42682;SDS011;28293;50.930;3.464;2023-08-17T05:53:45;11.15;;;8.32;;
42682;SDS011;28293;50.930;3.464;2023-08-17T05:56:11;14.13;;;8.77;;
42682;SDS011;28293;50.930;3.464;2023-08-17T05:58:37;12.05;;;9.07;;
42682;SDS011;28293;50.930;3.464;2023-08-17T06:01:06;14.48;;;9.40;;
42682;SDS011;28293;50.930;3.464;2023-08-17T06:03:32;14.43;;;9.07;;
42682;SDS011;28293;50.930;3.464;2023-08-17T06:05:58;14.18;;;9.27;;
42682;SDS011;28293;50.930;3.464;2023-08-17T06:08:24;13.18;;;8.75;;
42682;SDS011;28293;50.930;3.464;2023-08-17T06:10:50;13.40;;;8.68;;
42682;SDS011;28293;50.930;3.464;2023-08-17T06:13:16;14.23;;;9.43;;
42682;SDS011;28293;50.930;3.464;2023-08-17T06:15:41;13.30;;;9.50;;
42682;SDS011;28293;50.930;3.464;2023-08-17T06:18:07;12.88;;;9.02;;
42682;SDS011;28293;50.930;3.464;2023-08-17T06:20:32;14.80;;;9.65;;
42682;SDS011;28293;50.930;3.464;2023-08-17T06:22:58;10.77;;;7.88;;
42682;SDS011;28293;50.930;3.464;2023-08-17T06:25:24;13.38;;;9.05;;
42682;SDS011;28293;50.930;3.464;2023-08-17T06:27:51;14.45;;;8.57;;
42682;SDS011;28293;50.930;3.464;2023-08-17T06:30:16;15.43;;;8.77;;
42682;SDS011;28293;50.930;3.464;2023-08-17T06:32:43;11.82;;;8.45;;
42682;SDS011;28293;50.930;3.464;2023-08-17T06:35:09;14.57;;;8.73;;
42682;SDS011;28293;50.930;3.464;2023-08-17T06:37:35;14.10;;;8.77;;
42682;SDS011;28293;50.930;3.464;2023-08-17T06:40:01;15.25;;;8.98;;
42682;SDS011;28293;50.930;3.464;2023-08-17T06:42:28;13.02;;;8.55;;
42682;SDS011;28293;50.930;3.464;2023-08-17T06:44:54;14.13;;;8.63;;
42682;SDS011;28293;50.930;3.464;2023-08-17T06:47:19;12.13;;;8.13;;
42682;SDS011;28293;50.930;3.464;2023-08-17T06:49:45;12.80;;;7.82;;
42682;SDS011;28293;50.930;3.464;2023-08-17T06:52:11;13.73;;;8.32;;
42682;SDS011;28293;50.930;3.464;2023-08-17T06:54:36;18.13;;;8.50;;
42682;SDS011;28293;50.930;3.464;2023-08-17T06:57:02;14.60;;;7.50;;
42682;SDS011;28293;50.930;3.464;2023-08-17T06:59:28;16.00;;;8.30;;
42682;SDS011;28293;50.930;3.464;2023-08-17T07:01:54;11.90;;;7.13;;
42682;SDS011;28293;50.930;3.464;2023-08-17T07:04:19;15.85;;;7.63;;
42682;SDS011;28293;50.930;3.464;2023-08-17T07:06:45;13.98;;;7.82;;
42682;SDS011;28293;50.930;3.464;2023-08-17T07:09:11;10.95;;;6.93;;
42682;SDS011;28293;50.930;3.464;2023-08-17T07:11:37;12.77;;;7.93;;
42682;SDS011;28293;50.930;3.464;2023-08-17T07:14:03;11.00;;;7.38;;
42682;SDS011;28293;50.930;3.464;2023-08-17T07:16:31;13.35;;;6.82;;
42682;SDS011;28293;50.930;3.464;2023-08-17T07:18:57;10.63;;;6.38;;
42682;SDS011;28293;50.930;3.464;2023-08-17T07:21:23;15.27;;;7.03;;
42682;SDS011;28293;50.930;3.464;2023-08-17T07:23:49;11.55;;;6.72;;
42682;SDS011;28293;50.930;3.464;2023-08-17T07:26:15;13.45;;;5.72;;
42682;SDS011;28293;50.930;3.464;2023-08-17T07:28:41;10.90;;;5.95;;
42682;SDS011;28293;50.930;3.464;2023-08-17T07:31:06;9.73;;;5.45;;
42682;SDS011;28293;50.930;3.464;2023-08-17T07:33:32;15.18;;;6.65;;
42682;SDS011;28293;50.930;3.464;2023-08-17T07:35:58;9.40;;;5.65;;
42682;SDS011;28293;50.930;3.464;2023-08-17T07:38:24;12.00;;;6.53;;
42682;SDS011;28293;50.930;3.464;2023-08-17T07:40:49;11.00;;;6.03;;
42682;SDS011;28293;50.930;3.464;2023-08-17T07:43:15;10.68;;;5.80;;
42682;SDS011;28293;50.930;3.464;2023-08-17T07:45:41;10.23;;;5.45;;
42682;SDS011;28293;50.930;3.464;2023-08-17T07:48:06;9.95;;;5.43;;
42682;SDS011;28293;50.930;3.464;2023-08-17T07:50:32;10.52;;;5.55;;
42682;SDS011;28293;50.930;3.464;2023-08-17T07:52:58;9.23;;;5.38;;
42682;SDS011;28293;50.930;3.464;2023-08-17T07:55:23;9.85;;;5.82;;
42682;SDS011;28293;50.930;3.464;2023-08-17T07:57:50;10.18;;;4.80;;
42682;SDS011;28293;50.930;3.464;2023-08-17T08:00:16;9.90;;;5.25;;
42682;SDS011;28293;50.930;3.464;2023-08-17T08:02:42;9.25;;;5.10;;
42682;SDS011;28293;50.930;3.464;2023-08-17T08:05:07;10.15;;;4.93;;
42682;SDS011;28293;50.930;3.464;2023-08-17T08:07:33;10.43;;;5.18;;
42682;SDS011;28293;50.930;3.464;2023-08-17T08:09:59;9.13;;;4.85;;
42682;SDS011;28293;50.930;3.464;2023-08-17T08:12:25;9.75;;;4.72;;
42682;SDS011;28293;50.930;3.464;2023-08-17T08:14:50;7.95;;;4.88;;
42682;SDS011;28293;50.930;3.464;2023-08-17T08:17:16;8.82;;;5.40;;
42682;SDS011;28293;50.930;3.464;2023-08-17T08:19:42;11.05;;;5.22;;
42682;SDS011;28293;50.930;3.464;2023-08-17T08:22:07;9.93;;;5.47;;
42682;SDS011;28293;50.930;3.464;2023-08-17T08:24:33;12.02;;;6.13;;
42682;SDS011;28293;50.930;3.464;2023-08-17T08:27:00;10.82;;;5.65;;
42682;SDS011;28293;50.930;3.464;2023-08-17T08:29:26;11.30;;;5.57;;
42682;SDS011;28293;50.930;3.464;2023-08-17T08:31:52;10.45;;;5.63;;
42682;SDS011;28293;50.930;3.464;2023-08-17T08:34:18;11.68;;;5.47;;
42682;SDS011;28293;50.930;3.464;2023-08-17T08:36:44;10.40;;;5.55;;
42682;SDS011;28293;50.930;3.464;2023-08-17T08:39:10;8.63;;;4.85;;
42682;SDS011;28293;50.930;3.464;2023-08-17T08:41:37;13.82;;;5.93;;
42682;SDS011;28293;50.930;3.464;2023-08-17T08:44:03;10.25;;;5.75;;
42682;SDS011;28293;50.930;3.464;2023-08-17T08:46:30;12.27;;;6.15;;
42682;SDS011;28293;50.930;3.464;2023-08-17T08:48:57;13.98;;;6.32;;
42682;SDS011;28293;50.930;3.464;2023-08-17T08:51:25;11.95;;;5.88;;
42682;SDS011;28293;50.930;3.464;2023-08-17T08:54:02;12.35;;;6.68;;
42682;SDS011;28293;50.930;3.464;2023-08-17T08:56:30;15.82;;;7.70;;
42682;SDS011;28293;50.930;3.464;2023-08-17T08:58:58;14.68;;;7.07;;
42682;SDS011;28293;50.930;3.464;2023-08-17T09:01:28;14.25;;;7.05;;
42682;SDS011;28293;50.930;3.464;2023-08-17T09:03:57;14.55;;;7.20;;
42682;SDS011;28293;50.930;3.464;2023-08-17T09:06:25;14.40;;;7.75;;
42682;SDS011;28293;50.930;3.464;2023-08-17T09:08:52;16.13;;;7.25;;
42682;SDS011;28293;50.930;3.464;2023-08-17T09:11:18;14.45;;;7.55;;
42682;SDS011;28293;50.930;3.464;2023-08-17T09:13:44;12.20;;;6.05;;
42682;SDS011;28293;50.930;3.464;2023-08-17T09:16:10;12.20;;;6.28;;
42682;SDS011;28293;50.930;3.464;2023-08-17T09:18:35;12.30;;;6.85;;
42682;SDS011;28293;50.930;3.464;2023-08-17T09:21:01;11.02;;;5.95;;
42682;SDS011;28293;50.930;3.464;2023-08-17T09:23:27;15.63;;;7.10;;
42682;SDS011;28293;50.930;3.464;2023-08-17T09:25:52;17.25;;;7.30;;
42682;SDS011;28293;50.930;3.464;2023-08-17T09:28:23;17.95;;;6.93;;
42682;SDS011;28293;50.930;3.464;2023-08-17T09:30:52;13.73;;;7.60;;
42682;SDS011;28293;50.930;3.464;2023-08-17T09:33:23;13.05;;;7.43;;
42682;SDS011;28293;50.930;3.464;2023-08-17T09:35:50;15.35;;;7.90;;
42682;SDS011;28293;50.930;3.464;2023-08-17T09:38:17;16.55;;;8.13;;
42682;SDS011;28293;50.930;3.464;2023-08-17T09:40:43;14.50;;;7.72;;
42682;SDS011;28293;50.930;3.464;2023-08-17T09:43:09;15.85;;;7.70;;
42682;SDS011;28293;50.930;3.464;2023-08-17T09:45:36;18.13;;;9.32;;
42682;SDS011;28293;50.930;3.464;2023-08-17T09:48:03;19.20;;;8.70;;
42682;SDS011;28293;50.930;3.464;2023-08-17T09:50:29;13.75;;;6.60;;
42682;SDS011;28293;50.930;3.464;2023-08-17T09:52:55;16.77;;;7.72;;
42682;SDS011;28293;50.930;3.464;2023-08-17T09:55:23;13.93;;;8.68;;
42682;SDS011;28293;50.930;3.464;2023-08-17T09:57:49;14.88;;;8.40;;
42682;SDS011;28293;50.930;3.464;2023-08-17T10:00:17;14.73;;;8.75;;
42682;SDS011;28293;50.930;3.464;2023-08-17T10:02:44;13.57;;;7.82;;
42682;SDS011;28293;50.930;3.464;2023-08-17T10:05:13;13.25;;;7.38;;
42682;SDS011;28293;50.930;3.464;2023-08-17T10:07:43;14.00;;;8.07;;
42682;SDS011;28293;50.930;3.464;2023-08-17T10:10:10;13.63;;;8.52;;
42682;SDS011;28293;50.930;3.464;2023-08-17T10:12:40;15.40;;;9.95;;
42682;SDS011;28293;50.930;3.464;2023-08-17T10:15:13;18.92;;;9.88;;
42682;SDS011;28293;50.930;3.464;2023-08-17T10:17:46;16.17;;;9.10;;
42682;SDS011;28293;50.930;3.464;2023-08-17T10:20:48;12.05;;;7.30;;
42682;SDS011;28293;50.930;3.464;2023-08-17T10:23:24;14.27;;;9.13;;
42682;SDS011;28293;50.930;3.464;2023-08-17T10:25:51;14.20;;;9.40;;
42682;SDS011;28293;50.930;3.464;2023-08-17T10:28:18;15.15;;;9.02;;
42682;SDS011;28293;50.930;3.464;2023-08-17T10:30:48;15.82;;;9.20;;
42682;SDS011;28293;50.930;3.464;2023-08-17T10:33:13;15.02;;;8.75;;
42682;SDS011;28293;50.930;3.464;2023-08-17T10:35:40;15.27;;;9.27;;
42682;SDS011;28293;50.930;3.464;2023-08-17T10:38:07;15.98;;;9.43;;
42682;SDS011;28293;50.930;3.464;2023-08-17T10:40:37;13.98;;;8.45;;
42682;SDS011;28293;50.930;3.464;2023-08-17T10:43:05;12.60;;;8.05;;
42682;SDS011;28293;50.930;3.464;2023-08-17T10:45:31;12.13;;;9.00;;
42682;SDS011;28293;50.930;3.464;2023-08-17T10:50:37;13.35;;;9.88;;
42682;SDS011;28293;50.930;3.464;2023-08-17T10:53:04;14.30;;;9.48;;
42682;SDS011;28293;50.930;3.464;2023-08-17T10:55:35;13.95;;;8.52;;
42682;SDS011;28293;50.930;3.464;2023-08-17T10:58:02;13.23;;;8.27;;
42682;SDS011;28293;50.930;3.464;2023-08-17T11:00:35;12.68;;;8.55;;
42682;SDS011;28293;50.930;3.464;2023-08-17T11:03:06;13.88;;;7.63;;
42682;SDS011;28293;50.930;3.464;2023-08-17T11:05:43;12.73;;;8.20;;
42682;SDS011;28293;50.930;3.464;2023-08-17T11:08:22;11.50;;;8.52;;
42682;SDS011;28293;50.930;3.464;2023-08-17T11:13:26;13.25;;;8.10;;
42682;SDS011;28293;50.930;3.464;2023-08-17T11:15:54;14.05;;;8.98;;
42682;SDS011;28293;50.930;3.464;2023-08-17T11:18:20;12.98;;;10.05;;
42682;SDS011;28293;50.930;3.464;2023-08-17T11:20:46;15.60;;;9.30;;
42682;SDS011;28293;50.930;3.464;2023-08-17T11:23:13;15.60;;;9.63;;
42682;SDS011;28293;50.930;3.464;2023-08-17T11:25:40;13.95;;;9.55;;
42682;SDS011;28293;50.930;3.464;2023-08-17T11:28:07;16.80;;;11.05;;
42682;SDS011;28293;50.930;3.464;2023-08-17T11:30:34;15.43;;;11.77;;
42682;SDS011;28293;50.930;3.464;2023-08-17T11:33:02;14.23;;;10.52;;
42682;SDS011;28293;50.930;3.464;2023-08-17T11:35:28;13.73;;;10.05;;
42682;SDS011;28293;50.930;3.464;2023-08-17T11:37:54;15.35;;;9.88;;
42682;SDS011;28293;50.930;3.464;2023-08-17T11:40:19;14.07;;;10.60;;
42682;SDS011;28293;50.930;3.464;2023-08-17T11:42:45;14.63;;;10.07;;
42682;SDS011;28293;50.930;3.464;2023-08-17T11:45:11;14.50;;;10.57;;
42682;SDS011;28293;50.930;3.464;2023-08-17T11:47:38;14.35;;;10.27;;
42682;SDS011;28293;50.930;3.464;2023-08-17T11:50:05;13.20;;;9.23;;
42682;SDS011;28293;50.930;3.464;2023-08-17T11:52:33;12.18;;;9.00;;
42682;SDS011;28293;50.930;3.464;2023-08-17T11:54:59;14.35;;;9.80;;
42682;SDS011;28293;50.930;3.464;2023-08-17T11:57:25;13.73;;;10.32;;
42682;SDS011;28293;50.930;3.464;2023-08-17T11:59:54;17.65;;;10.23;;
42682;SDS011;28293;50.930;3.464;2023-08-17T12:02:22;13.02;;;9.10;;
42682;SDS011;28293;50.930;3.464;2023-08-17T12:04:50;13.13;;;8.43;;
42682;SDS011;28293;50.930;3.464;2023-08-17T12:07:16;11.07;;;8.32;;
42682;SDS011;28293;50.930;3.464;2023-08-17T12:09:43;12.73;;;8.20;;
42682;SDS011;28293;50.930;3.464;2023-08-17T12:12:10;13.80;;;8.07;;
42682;SDS011;28293;50.930;3.464;2023-08-17T12:14:36;13.13;;;8.25;;
42682;SDS011;28293;50.930;3.464;2023-08-17T12:17:02;14.35;;;8.40;;
42682;SDS011;28293;50.930;3.464;2023-08-17T12:19:29;12.45;;;8.45;;
42682;SDS011;28293;50.930;3.464;2023-08-17T12:21:54;11.93;;;9.32;;
42682;SDS011;28293;50.930;3.464;2023-08-17T12:24:25;13.30;;;8.60;;
42682;SDS011;28293;50.930;3.464;2023-08-17T12:26:51;15.70;;;10.65;;
42682;SDS011;28293;50.930;3.464;2023-08-17T12:29:17;14.63;;;9.95;;
42682;SDS011;28293;50.930;3.464;2023-08-17T12:31:43;13.55;;;10.38;;
42682;SDS011;28293;50.930;3.464;2023-08-17T12:34:09;16.23;;;8.80;;
42682;SDS011;28293;50.930;3.464;2023-08-17T12:36:35;17.73;;;12.45;;
42682;SDS011;28293;50.930;3.464;2023-08-17T12:39:02;16.02;;;10.98;;
42682;SDS011;28293;50.930;3.464;2023-08-17T12:41:29;15.70;;;12.85;;
42682;SDS011;28293;50.930;3.464;2023-08-17T12:43:54;16.67;;;11.68;;
42682;SDS011;28293;50.930;3.464;2023-08-17T12:46:23;14.00;;;11.88;;
42682;SDS011;28293;50.930;3.464;2023-08-17T12:48:49;17.25;;;13.88;;
42682;SDS011;28293;50.930;3.464;2023-08-17T12:51:15;17.10;;;14.32;;
42682;SDS011;28293;50.930;3.464;2023-08-17T12:53:41;15.25;;;12.60;;
42682;SDS011;28293;50.930;3.464;2023-08-17T12:56:07;16.95;;;15.00;;
42682;SDS011;28293;50.930;3.464;2023-08-17T12:58:33;20.10;;;13.73;;
42682;SDS011;28293;50.930;3.464;2023-08-17T13:00:59;17.15;;;14.32;;
42682;SDS011;28293;50.930;3.464;2023-08-17T13:03:24;19.73;;;15.25;;
42682;SDS011;28293;50.930;3.464;2023-08-17T13:05:50;21.00;;;18.15;;
42682;SDS011;28293;50.930;3.464;2023-08-17T13:08:16;16.10;;;14.32;;
42682;SDS011;28293;50.930;3.464;2023-08-17T13:10:42;18.17;;;16.10;;
42682;SDS011;28293;50.930;3.464;2023-08-17T13:13:07;16.52;;;14.63;;
42682;SDS011;28293;50.930;3.464;2023-08-17T13:15:33;18.33;;;16.38;;
42682;SDS011;28293;50.930;3.464;2023-08-17T13:17:59;20.17;;;18.08;;
42682;SDS011;28293;50.930;3.464;2023-08-17T13:20:25;20.80;;;18.63;;
42682;SDS011;28293;50.930;3.464;2023-08-17T13:22:50;19.45;;;17.48;;
42682;SDS011;28293;50.930;3.464;2023-08-17T13:25:16;21.90;;;19.63;;
42682;SDS011;28293;50.930;3.464;2023-08-17T13:27:42;20.67;;;18.65;;
42682;SDS011;28293;50.930;3.464;2023-08-17T13:30:08;22.63;;;20.25;;
42682;SDS011;28293;50.930;3.464;2023-08-17T13:32:34;20.20;;;18.15;;
42682;SDS011;28293;50.930;3.464;2023-08-17T13:35:01;21.98;;;19.77;;
42682;SDS011;28293;50.930;3.464;2023-08-17T13:37:27;22.20;;;20.05;;
42682;SDS011;28293;50.930;3.464;2023-08-17T13:39:53;23.10;;;20.85;;
42682;SDS011;28293;50.930;3.464;2023-08-17T13:42:19;23.65;;;21.30;;
42682;SDS011;28293;50.930;3.464;2023-08-17T13:44:45;25.52;;;23.02;;
42682;SDS011;28293;50.930;3.464;2023-08-17T13:47:11;24.15;;;21.95;;
42682;SDS011;28293;50.930;3.464;2023-08-17T13:49:37;23.02;;;20.63;;
42682;SDS011;28293;50.930;3.464;2023-08-17T13:52:03;23.23;;;20.92;;
42682;SDS011;28293;50.930;3.464;2023-08-17T13:54:29;22.67;;;20.33;;
42682;SDS011;28293;50.930;3.464;2023-08-17T13:56:55;21.85;;;19.85;;
42682;SDS011;28293;50.930;3.464;2023-08-17T13:59:20;24.25;;;21.98;;
42682;SDS011;28293;50.930;3.464;2023-08-17T14:01:46;24.58;;;22.23;;
42682;SDS011;28293;50.930;3.464;2023-08-17T14:04:12;24.95;;;22.38;;
42682;SDS011;28293;50.930;3.464;2023-08-17T14:06:39;25.17;;;22.73;;
42682;SDS011;28293;50.930;3.464;2023-08-17T14:09:05;25.83;;;23.35;;
42682;SDS011;28293;50.930;3.464;2023-08-17T14:11:31;24.30;;;21.92;;
42682;SDS011;28293;50.930;3.464;2023-08-17T14:13:57;24.35;;;21.75;;
42682;SDS011;28293;50.930;3.464;2023-08-17T14:16:23;23.08;;;20.85;;
42682;SDS011;28293;50.930;3.464;2023-08-17T14:18:49;22.63;;;20.40;;
42682;SDS011;28293;50.930;3.464;2023-08-17T14:21:14;23.33;;;20.45;;
42682;SDS011;28293;50.930;3.464;2023-08-17T14:23:40;24.90;;;22.40;;
42682;SDS011;28293;50.930;3.464;2023-08-17T14:26:06;21.90;;;19.90;;
42682;SDS011;28293;50.930;3.464;2023-08-17T14:28:32;23.88;;;21.55;;
42682;SDS011;28293;50.930;3.464;2023-08-17T14:30:58;23.65;;;21.23;;
42682;SDS011;28293;50.930;3.464;2023-08-17T14:33:23;21.65;;;19.45;;